Paradise, Montana
Current Conditions -  °F | °C
As of 9:19 PM on Thursday 27 Nov 2014 (Local Time) from KMLP Reporting Station
Light Rain Light Rain  
Wind Chill: 27°   Ceiling: 500
Heat Index: 36°   Visibility: 2.5mi
Dew Point: 36°   Wind: 14mph
Humidity: 100%   Direction: 220°SW
Pressure: 29.78"   Gusts: 30mph
Location:  47.39°N, 114.8°W
Report Text: KMLP 280419Z AUTO 22012G26KT 180V260 2 1/2SM -RA BR OVC005 02/02 A2978 RMK AO2 PK WND 20028/0406 VIS 1 3/4V4 P0004 T00220022
Loading
Personal Weather Stations






























Interactive Weather Map New forecast layout! Learn more

10-Day Weather Forecast

Advertisements
Track Severe Weather on mobile